Dimitris Y II — 3EVJ2 — position and weather

sailwx.info

Track history (hours):
 
Tides and Currents Weather Stations Pressure Air Temp Water Temp Dewpoint Dewpoint Depression Visibility Wind Speed Wind Dir Waves Ship Positions

Dimitris Y II

Last reported at 2017-Dec-04 06:43 UTC. Time now 2017-Dec-18 01:27 UTC.
Position N 36°47' E 023°58'.
Warning: this ship's position is 13 days out of date.

Length 90 m; draft 6.2 m.

Type: Cargo ship. MMSI: 351750000.

Date/timePositionNaut miles runAvg speedWind from/ knotsBaromVisibWave heightAir tempDewpointWater temp
2017-Dec-04 06:43N 36°47' E 023°58'2 9.7
2017-Dec-04 06:29N 36°49' E 024°01'5 9.9
2017-Dec-04 06:00N 36°51' E 024°06'5 9.6
2017-Dec-04 05:30N 36°54' E 024°11'5 9.2
2017-Dec-04 05:00N 36°56' E 024°16'5 9.4
2017-Dec-04 04:30N 36°59' E 024°21'5 9.5
2017-Dec-04 04:00N 37°01' E 024°26'5 9.7
2017-Dec-04 03:30N 37°04' E 024°31'5 9.7
2017-Dec-04 03:00N 37°07' E 024°36'5 9.7
2017-Dec-04 02:30N 37°10' E 024°41'5 9.4
2017-Dec-04 02:00N 37°12' E 024°45'5 9.7
2017-Dec-04 01:30N 37°15' E 024°50'5 9.9
2017-Dec-04 01:00N 37°18' E 024°55'510.0
2017-Dec-04 00:30N 37°21' E 025°00'610.0
2017-Dec-03 23:57N 37°25' E 025°06'4 9.3
2017-Dec-03 23:30N 37°27' E 025°10'5 9.3
2017-Dec-03 23:00N 37°30' E 025°15'5 9.3
2017-Dec-03 22:30N 37°34' E 025°18'510.2
2017-Dec-03 22:00N 37°39' E 025°20'5 9.6
2017-Dec-03 21:30N 37°43' E 025°22'5 9.3
2017-Dec-03 21:00N 37°48' E 025°24'5 9.6
2017-Dec-03 20:30N 37°52' E 025°26'5 9.4
2017-Dec-03 20:00N 37°57' E 025°28'5 9.6
2017-Dec-03 19:29N 38°01' E 025°30'  
2017-Nov-26 11:27N 46°19' E 030°41'  
Track history (hours):
 
Tides and Currents Weather Stations Pressure Air Temp Water Temp Dewpoint Dewpoint Depression Visibility Wind Speed Wind Dir Waves Ship Positions

Dimitris Y II

Last reported at 2017-Dec-04 06:43 UTC. Time now 2017-Dec-18 01:27 UTC.
Position N 36°47' E 023°58'.
Warning: this ship's position is 13 days out of date.

Length 90 m; draft 6.2 m.

Type: Cargo ship. MMSI: 351750000.

Date/timePositionNaut miles runAvg speedWind from/ knotsBaromVisibWave heightAir tempDewpointWater temp
2017-Dec-04 06:43N 36°47' E 023°58'2 9.7
2017-Dec-04 06:29N 36°49' E 024°01'5 9.9
2017-Dec-04 06:00N 36°51' E 024°06'5 9.6
2017-Dec-04 05:30N 36°54' E 024°11'5 9.2
2017-Dec-04 05:00N 36°56' E 024°16'5 9.4
2017-Dec-04 04:30N 36°59' E 024°21'5 9.5
2017-Dec-04 04:00N 37°01' E 024°26'5 9.7
2017-Dec-04 03:30N 37°04' E 024°31'5 9.7
2017-Dec-04 03:00N 37°07' E 024°36'5 9.7
2017-Dec-04 02:30N 37°10' E 024°41'5 9.4
2017-Dec-04 02:00N 37°12' E 024°45'5 9.7
2017-Dec-04 01:30N 37°15' E 024°50'5 9.9
2017-Dec-04 01:00N 37°18' E 024°55'510.0
2017-Dec-04 00:30N 37°21' E 025°00'610.0
2017-Dec-03 23:57N 37°25' E 025°06'4 9.3
2017-Dec-03 23:30N 37°27' E 025°10'5 9.3
2017-Dec-03 23:00N 37°30' E 025°15'5 9.3
2017-Dec-03 22:30N 37°34' E 025°18'510.2
2017-Dec-03 22:00N 37°39' E 025°20'5 9.6
2017-Dec-03 21:30N 37°43' E 025°22'5 9.3
2017-Dec-03 21:00N 37°48' E 025°24'5 9.6
2017-Dec-03 20:30N 37°52' E 025°26'5 9.4
2017-Dec-03 20:00N 37°57' E 025°28'5 9.6
2017-Dec-03 19:29N 38°01' E 025°30'  
2017-Nov-26 11:27N 46°19' E 030°41'  

Dump ship's entire track history